createdAt,value
2023-02-16T00:00:45.046Z,0.98
2023-02-16T00:03:14.779Z,0.13
2023-02-16T00:05:42.191Z,0.40
2023-02-16T00:08:09.720Z,0.80
2023-02-16T00:10:37.999Z,0.98
2023-02-16T00:13:48.014Z,1.10
2023-02-16T00:16:16.747Z,0.63
2023-02-16T00:18:44.286Z,0.82
2023-02-16T00:21:11.591Z,0.10
2023-02-16T00:23:39.160Z,0.60
2023-02-16T00:26:08.417Z,0.20
2023-02-16T00:28:35.594Z,1.17
2023-02-16T00:31:03.253Z,1.20
2023-02-16T00:33:31.015Z,0.47
2023-02-16T00:35:58.275Z,0.45
2023-02-16T00:38:25.588Z,0.82
2023-02-16T00:40:52.714Z,0.52
2023-02-16T00:43:26.006Z,0.93
2023-02-16T00:45:53.808Z,0.50
2023-02-16T00:48:21.058Z,1.05
2023-02-16T00:50:48.292Z,1.00
2023-02-16T00:53:15.516Z,1.00
2023-02-16T00:55:43.337Z,1.45
2023-02-16T00:58:19.697Z,0.45
2023-02-16T01:00:53.133Z,0.82
2023-02-16T01:03:23.102Z,1.48
2023-02-16T01:06:10.704Z,1.67
2023-02-16T01:08:56.462Z,2.25
2023-02-16T01:11:24.142Z,2.47
2023-02-16T01:13:52.358Z,1.70
2023-02-16T01:16:23.981Z,0.82
2023-02-16T01:18:51.746Z,1.42
2023-02-16T01:21:19.035Z,0.75
2023-02-16T01:23:46.254Z,2.20
2023-02-16T01:26:15.851Z,0.30
2023-02-16T01:28:43.382Z,0.75
2023-02-16T01:31:11.326Z,0.77
2023-02-16T01:33:38.641Z,0.80
2023-02-16T01:36:06.316Z,0.77
2023-02-16T01:38:33.489Z,1.15
2023-02-16T01:41:00.684Z,1.08
2023-02-16T01:43:43.260Z,0.85
2023-02-16T01:46:30.735Z,0.60
2023-02-16T01:48:58.141Z,0.52
2023-02-16T01:51:30.170Z,1.17
2023-02-16T01:54:06.517Z,0.40
2023-02-16T01:56:55.312Z,0.47
2023-02-16T01:59:31.038Z,1.90
2023-02-16T02:01:58.269Z,0.47
2023-02-16T02:04:56.020Z,1.08
2023-02-16T02:07:29.596Z,0.50
2023-02-16T02:10:16.987Z,1.13
2023-02-16T02:13:00.248Z,0.43
2023-02-16T02:15:29.075Z,1.20
2023-02-16T02:17:56.273Z,1.40
2023-02-16T02:20:50.639Z,0.68
2023-02-16T02:23:37.511Z,0.30
2023-02-16T02:26:04.633Z,0.65
2023-02-16T02:28:40.978Z,0.35
2023-02-16T02:31:17.337Z,1.17
2023-02-16T02:33:53.757Z,0.63
2023-02-16T02:36:47.247Z,0.32
2023-02-16T02:39:28.412Z,0.65
2023-02-16T02:42:03.851Z,1.15
2023-02-16T02:44:32.153Z,0.65
2023-02-16T02:46:59.330Z,0.50
2023-02-16T02:49:26.521Z,0.08
2023-02-16T02:51:53.819Z,0.65
2023-02-16T02:54:42.621Z,0.47
2023-02-16T02:57:31.112Z,0.20
2023-02-16T03:00:19.797Z,0.03
2023-02-16T03:02:48.481Z,0.00
2023-02-16T03:05:16.724Z,0.05
2023-02-16T03:07:48.414Z,0.32
2023-02-16T03:10:37.264Z,0.00
2023-02-16T03:13:06.926Z,0.05
2023-02-16T03:15:35.406Z,0.35
2023-02-16T03:18:22.352Z,0.32
2023-02-16T03:21:08.419Z,0.00
2023-02-16T03:23:55.334Z,0.30
2023-02-16T03:26:41.395Z,0.32
2023-02-16T03:29:22.661Z,0.00
2023-02-16T03:31:50.747Z,0.00
2023-02-16T03:34:18.836Z,0.00
2023-02-16T03:36:47.918Z,0.00
2023-02-16T03:39:15.326Z,0.30
2023-02-16T03:41:43.988Z,0.00
2023-02-16T03:44:11.206Z,0.00
2023-02-16T03:46:38.489Z,0.00
2023-02-16T03:49:05.857Z,0.00
2023-02-16T03:51:33.111Z,0.00
2023-02-16T03:54:00.360Z,0.10
2023-02-16T03:56:27.598Z,0.10
2023-02-16T03:58:54.792Z,0.28
2023-02-16T04:01:21.953Z,0.00
2023-02-16T04:03:49.225Z,0.00
2023-02-16T04:06:16.465Z,0.00
2023-02-16T04:08:43.967Z,0.00
2023-02-16T04:11:29.764Z,0.00
2023-02-16T04:13:57.098Z,0.75
2023-02-16T04:16:24.434Z,0.00
2023-02-16T04:18:51.672Z,0.00
2023-02-16T04:21:18.880Z,0.00
2023-02-16T04:23:46.214Z,0.00
2023-02-16T04:26:13.435Z,0.00
2023-02-16T04:28:40.559Z,0.00
2023-02-16T04:31:08.140Z,0.05
2023-02-16T04:33:35.550Z,0.28
2023-02-16T04:36:02.831Z,0.00
2023-02-16T04:38:30.127Z,0.00
2023-02-16T04:40:57.393Z,0.00
2023-02-16T04:43:24.696Z,0.00
2023-02-16T04:45:51.917Z,0.00
2023-02-16T04:48:19.090Z,0.00
2023-02-16T04:50:46.225Z,0.00
2023-02-16T04:53:13.356Z,0.00
2023-02-16T04:55:40.565Z,0.00
2023-02-16T04:58:07.694Z,0.00
2023-02-16T05:00:36.559Z,0.00
2023-02-16T05:03:03.935Z,0.08
2023-02-16T05:05:31.618Z,0.00
2023-02-16T05:07:58.791Z,0.00
2023-02-16T05:10:25.953Z,0.00
2023-02-16T05:13:11.902Z,0.00
2023-02-16T05:15:39.275Z,0.00
2023-02-16T05:18:06.574Z,0.00
2023-02-16T05:20:52.783Z,0.10
2023-02-16T05:23:19.936Z,0.00
2023-02-16T05:25:47.104Z,0.00
2023-02-16T05:28:14.308Z,0.22
2023-02-16T05:30:41.550Z,0.10
2023-02-16T05:33:08.714Z,0.15
2023-02-16T05:35:35.908Z,0.00
2023-02-16T05:38:03.054Z,0.22
2023-02-16T05:40:30.205Z,0.00
2023-02-16T05:42:57.363Z,0.10
2023-02-16T05:45:24.720Z,0.55
2023-02-16T05:47:53.158Z,0.22
2023-02-16T05:50:20.398Z,0.28
2023-02-16T05:52:47.575Z,0.00
2023-02-16T05:55:14.777Z,0.03
2023-02-16T05:57:41.964Z,0.80
2023-02-16T06:00:09.593Z,0.00
2023-02-16T06:02:36.864Z,0.10
2023-02-16T06:05:04.140Z,0.63
2023-02-16T06:07:31.344Z,0.05
2023-02-16T06:09:58.524Z,0.17
2023-02-16T06:12:25.791Z,0.50
2023-02-16T06:14:53.035Z,0.03
2023-02-16T06:17:20.262Z,0.00
2023-02-16T06:19:47.455Z,0.30
2023-02-16T06:22:14.611Z,0.17
2023-02-16T06:24:41.850Z,0.10
2023-02-16T06:27:09.022Z,0.03
2023-02-16T06:29:36.368Z,0.20
2023-02-16T06:32:03.704Z,0.20
2023-02-16T06:34:31.011Z,0.00
2023-02-16T06:36:58.183Z,0.00
2023-02-16T06:39:25.321Z,0.00
2023-02-16T06:41:52.557Z,0.10
2023-02-16T06:44:19.835Z,0.00
2023-02-16T06:46:47.715Z,0.10
2023-02-16T06:49:16.846Z,0.00
2023-02-16T06:51:44.661Z,0.15
2023-02-16T06:54:12.154Z,0.30
2023-02-16T06:56:39.635Z,0.30
2023-02-16T06:59:07.006Z,0.00
2023-02-16T07:01:34.300Z,0.00
2023-02-16T07:04:03.559Z,0.40
2023-02-16T07:06:31.059Z,0.00
2023-02-16T07:08:58.267Z,0.10
2023-02-16T07:11:25.490Z,0.10
2023-02-16T07:13:52.745Z,0.20
2023-02-16T07:16:20.206Z,0.40
2023-02-16T07:18:47.619Z,0.15
2023-02-16T07:21:14.955Z,0.00
2023-02-16T07:23:42.340Z,0.70
2023-02-16T07:26:09.752Z,0.25
2023-02-16T07:28:36.949Z,0.22
2023-02-16T07:31:11.434Z,0.20
2023-02-16T07:33:38.854Z,0.32
2023-02-16T07:36:07.148Z,0.00
2023-02-16T07:38:34.389Z,0.25
2023-02-16T07:41:01.731Z,0.10
2023-02-16T07:43:29.097Z,0.47
2023-02-16T07:45:56.733Z,0.28
2023-02-16T07:48:24.094Z,0.15
2023-02-16T07:50:51.312Z,1.10
2023-02-16T07:53:18.627Z,4.70
2023-02-16T07:55:46.376Z,6.82
2023-02-16T07:58:27.123Z,4.00
2023-02-16T08:00:57.496Z,1.33
2023-02-16T08:03:25.316Z,4.55
2023-02-16T08:05:52.617Z,4.38
2023-02-16T08:08:19.818Z,3.72
2023-02-16T08:10:47.162Z,2.92
2023-02-16T08:13:14.327Z,3.47
2023-02-16T08:15:44.265Z,4.60
2023-02-16T08:18:12.090Z,3.60
2023-02-16T08:20:57.554Z,1.98
2023-02-16T08:23:26.606Z,3.28
2023-02-16T08:25:53.833Z,3.72
2023-02-16T08:28:22.093Z,1.98
2023-02-16T08:30:49.782Z,2.00
2023-02-16T08:33:17.464Z,1.83
2023-02-16T08:35:45.174Z,1.67
2023-02-16T08:38:12.399Z,1.25
2023-02-16T08:40:39.769Z,1.73
2023-02-16T08:43:07.094Z,2.00
2023-02-16T08:45:34.365Z,1.27
2023-02-16T08:48:02.255Z,1.20
2023-02-16T08:50:29.472Z,1.17
2023-02-16T08:52:58.262Z,1.55
2023-02-16T08:55:25.459Z,1.10
2023-02-16T08:57:52.629Z,1.10
2023-02-16T09:00:35.111Z,1.13
2023-02-16T09:03:02.409Z,1.08
2023-02-16T09:05:29.612Z,0.60
2023-02-16T09:07:57.607Z,0.60
2023-02-16T09:10:24.969Z,0.30
2023-02-16T09:12:52.195Z,0.57
2023-02-16T09:15:20.747Z,0.73
2023-02-16T09:17:47.989Z,0.35
2023-02-16T09:20:15.706Z,0.00
2023-02-16T09:22:47.562Z,0.10
2023-02-16T09:25:15.697Z,0.00
2023-02-16T09:27:43.326Z,0.30
2023-02-16T09:30:10.704Z,0.28
2023-02-16T09:32:37.966Z,0.43
2023-02-16T09:35:05.389Z,0.10
2023-02-16T09:37:32.856Z,0.47
2023-02-16T09:40:00.181Z,0.10
2023-02-16T09:42:42.374Z,0.00
2023-02-16T09:45:11.472Z,0.15
2023-02-16T09:47:40.533Z,0.00
2023-02-16T09:50:14.731Z,0.15
2023-02-16T09:52:49.910Z,2.53
2023-02-16T09:55:20.854Z,1.17
2023-02-16T09:57:48.008Z,0.30
2023-02-16T10:00:16.280Z,0.22
2023-02-16T10:02:43.481Z,0.08
2023-02-16T10:05:40.195Z,0.80
2023-02-16T10:08:10.621Z,0.03
2023-02-16T10:10:56.081Z,0.00
2023-02-16T10:13:26.415Z,0.00
2023-02-16T10:15:55.226Z,0.00
2023-02-16T10:18:30.973Z,0.75
2023-02-16T10:21:01.180Z,0.08
2023-02-16T10:23:47.720Z,0.17
2023-02-16T10:26:21.459Z,0.35
2023-02-16T10:28:50.280Z,0.00
2023-02-16T10:31:23.488Z,0.17
2023-02-16T10:34:10.132Z,0.10
2023-02-16T10:36:46.990Z,0.00
2023-02-16T10:39:22.901Z,0.20
2023-02-16T10:42:09.858Z,0.10
2023-02-16T10:44:40.218Z,0.17
2023-02-16T10:47:13.256Z,0.00
2023-02-16T10:49:40.498Z,0.00
2023-02-16T10:52:08.446Z,0.73
2023-02-16T10:54:36.744Z,0.00
2023-02-16T10:57:05.844Z,0.00
2023-02-16T10:59:32.967Z,0.00
2023-02-16T11:02:00.675Z,0.38
2023-02-16T11:04:30.987Z,0.00
2023-02-16T11:07:10.825Z,0.10
2023-02-16T11:09:38.614Z,0.00
2023-02-16T11:12:16.651Z,0.25
2023-02-16T11:14:49.194Z,0.10
2023-02-16T11:17:17.091Z,0.00
2023-02-16T11:19:50.506Z,0.10
2023-02-16T11:22:32.980Z,0.03
2023-02-16T11:25:21.285Z,0.00
2023-02-16T11:27:57.109Z,0.00
2023-02-16T11:30:43.392Z,0.13
2023-02-16T11:33:29.438Z,2.38
2023-02-16T11:35:56.705Z,0.20
2023-02-16T11:38:34.575Z,0.20
2023-02-16T11:41:04.062Z,0.00
2023-02-16T11:43:33.441Z,0.00
2023-02-16T11:46:20.896Z,0.38
2023-02-16T11:48:48.794Z,0.00
2023-02-16T11:51:17.469Z,0.55
2023-02-16T11:53:44.993Z,0.10
2023-02-16T11:56:12.824Z,0.30
2023-02-16T11:58:40.461Z,0.00
2023-02-16T12:01:29.034Z,0.00
2023-02-16T12:03:57.049Z,0.00
2023-02-16T12:06:24.250Z,0.00
2023-02-16T12:08:58.151Z,0.00
2023-02-16T12:11:51.409Z,0.00
2023-02-16T12:14:22.438Z,0.03
2023-02-16T12:16:54.001Z,0.00
2023-02-16T12:19:24.289Z,0.00
2023-02-16T12:21:58.804Z,0.00
2023-02-16T12:24:32.064Z,0.08
2023-02-16T12:27:01.415Z,0.00
2023-02-16T12:29:38.505Z,0.00
2023-02-16T12:32:18.811Z,0.00
2023-02-16T12:35:09.572Z,0.05
2023-02-16T12:37:55.594Z,0.00
2023-02-16T12:40:41.419Z,0.00
2023-02-16T12:43:27.549Z,0.00
2023-02-16T12:45:56.612Z,1.80
2023-02-16T12:48:23.725Z,0.00
2023-02-16T12:50:52.703Z,0.20
2023-02-16T12:53:26.861Z,0.00
2023-02-16T12:56:02.074Z,0.13
2023-02-16T12:58:29.947Z,0.00
2023-02-16T13:01:01.498Z,0.00
2023-02-16T13:03:47.986Z,0.00
2023-02-16T13:06:22.126Z,0.00
2023-02-16T13:08:53.727Z,0.10
2023-02-16T13:11:31.136Z,0.00
2023-02-16T13:14:01.380Z,0.00
2023-02-16T13:16:43.843Z,0.00
2023-02-16T13:19:15.372Z,0.17
2023-02-16T13:21:54.722Z,0.00
2023-02-16T13:24:40.840Z,0.08
2023-02-16T13:27:07.975Z,0.10
2023-02-16T13:29:41.341Z,0.00
2023-02-16T13:32:22.598Z,0.00
2023-02-16T13:35:16.016Z,0.00
2023-02-16T13:40:16.663Z,0.00
2023-02-16T13:42:43.997Z,0.00
2023-02-16T13:45:20.326Z,0.00
2023-02-16T13:47:49.921Z,0.00
2023-02-16T13:50:23.831Z,0.20
2023-02-16T13:52:54.453Z,0.22
2023-02-16T13:55:31.758Z,0.05
2023-02-16T13:58:02.250Z,0.00
2023-02-16T14:00:32.364Z,0.90
2023-02-16T14:02:59.631Z,0.00
2023-02-16T14:05:29.387Z,0.00
2023-02-16T14:08:09.754Z,0.30
2023-02-16T14:10:58.922Z,0.00
2023-02-16T14:13:35.399Z,0.00
2023-02-16T14:16:14.817Z,0.00
2023-02-16T14:19:00.779Z,0.00
2023-02-16T14:21:42.056Z,0.00
2023-02-16T14:24:14.385Z,0.00
2023-02-16T14:26:59.463Z,0.08
2023-02-16T14:29:32.242Z,0.10
2023-02-16T14:34:31.938Z,0.00
2023-02-16T14:37:17.403Z,0.00
2023-02-16T14:40:06.483Z,0.52
2023-02-16T14:42:34.206Z,0.30
2023-02-16T14:45:20.622Z,0.00
2023-02-16T14:47:57.001Z,0.03
2023-02-16T14:50:32.791Z,0.00
2023-02-16T14:53:17.291Z,0.00
2023-02-16T14:55:53.929Z,0.00
2023-02-16T14:58:27.780Z,0.00
2023-02-16T15:01:10.073Z,0.00
2023-02-16T15:03:48.235Z,0.20
2023-02-16T15:06:19.920Z,0.57
2023-02-16T15:08:49.890Z,0.00
2023-02-16T15:11:23.035Z,0.00
2023-02-16T15:13:53.388Z,0.00
2023-02-16T15:16:22.181Z,0.08
2023-02-16T15:18:54.453Z,0.65
2023-02-16T15:21:24.109Z,0.00
2023-02-16T15:23:52.931Z,0.00
2023-02-16T15:26:24.586Z,0.00
2023-02-16T15:28:53.669Z,0.10
2023-02-16T15:31:24.052Z,0.00
2023-02-16T15:33:56.852Z,0.00
2023-02-16T15:36:38.353Z,0.00
2023-02-16T15:39:07.272Z,0.08
2023-02-16T15:41:39.083Z,0.00
2023-02-16T15:44:07.469Z,0.00
2023-02-16T15:46:39.754Z,0.00
2023-02-16T15:49:13.782Z,0.00
2023-02-16T15:51:41.728Z,0.00
2023-02-16T15:54:16.566Z,0.00
2023-02-16T15:56:48.578Z,0.08
2023-02-16T15:59:18.933Z,0.00
2023-02-16T16:01:47.308Z,0.05
2023-02-16T16:04:22.600Z,0.20
2023-02-16T16:06:51.360Z,0.00
2023-02-16T16:09:22.043Z,0.20
2023-02-16T16:11:49.713Z,0.00
2023-02-16T16:14:17.351Z,0.20
2023-02-16T16:16:44.933Z,0.00
2023-02-16T16:19:17.141Z,0.00
2023-02-16T16:21:48.534Z,0.00
2023-02-16T16:24:27.967Z,0.00
2023-02-16T16:26:56.481Z,0.00
2023-02-16T16:29:42.055Z,0.73
2023-02-16T16:32:21.178Z,0.00
2023-02-16T16:34:49.223Z,0.00
2023-02-16T16:37:33.883Z,0.00
2023-02-16T16:40:05.163Z,0.00
2023-02-16T16:42:33.652Z,0.00
2023-02-16T16:45:07.338Z,0.00
2023-02-16T16:47:41.398Z,0.00
2023-02-16T16:50:09.326Z,0.00
2023-02-16T16:52:38.502Z,0.00
2023-02-16T16:55:24.972Z,0.00
2023-02-16T16:57:53.963Z,0.05
2023-02-16T17:00:22.015Z,0.00
2023-02-16T17:02:49.594Z,0.00
2023-02-16T17:05:17.986Z,0.00
2023-02-16T17:07:49.147Z,0.00
2023-02-16T17:10:17.834Z,0.00
2023-02-16T17:12:45.697Z,0.00
2023-02-16T17:15:25.133Z,0.00
2023-02-16T17:17:52.640Z,1.08
2023-02-16T17:20:20.060Z,0.00
2023-02-16T17:22:47.319Z,0.35
2023-02-16T17:25:14.579Z,0.00
2023-02-16T17:27:41.758Z,0.30
2023-02-16T17:30:11.018Z,0.00
2023-02-16T17:32:38.385Z,0.08
2023-02-16T17:35:06.161Z,0.03
2023-02-16T17:37:35.853Z,0.00
2023-02-16T17:40:04.569Z,0.35
2023-02-16T17:42:32.128Z,0.00
2023-02-16T17:44:59.541Z,0.00
2023-02-16T17:47:27.041Z,0.00
2023-02-16T17:49:54.305Z,0.00
2023-02-16T17:52:21.478Z,0.17
2023-02-16T17:54:48.829Z,0.13
2023-02-16T17:57:16.040Z,0.00
2023-02-16T17:59:43.222Z,0.00
2023-02-16T18:02:13.602Z,0.00
2023-02-16T18:04:41.191Z,0.00
2023-02-16T18:07:11.154Z,0.00
2023-02-16T18:09:38.307Z,0.00
2023-02-16T18:12:05.612Z,0.00
2023-02-16T18:14:33.256Z,0.10
2023-02-16T18:17:01.437Z,0.25
2023-02-16T18:19:29.175Z,0.00
2023-02-16T18:21:56.470Z,0.00
2023-02-16T18:24:26.203Z,0.00
2023-02-16T18:26:55.395Z,0.00
2023-02-16T18:29:22.702Z,0.00
2023-02-16T18:31:49.962Z,0.00
2023-02-16T18:34:17.256Z,0.00
2023-02-16T18:36:44.504Z,0.00
2023-02-16T18:39:11.740Z,0.00
2023-02-16T18:41:39.215Z,0.00
2023-02-16T18:44:06.697Z,0.08
2023-02-16T18:46:33.986Z,0.00
2023-02-16T18:49:01.213Z,0.00
2023-02-16T18:51:31.821Z,0.08
2023-02-16T18:53:59.124Z,0.00
2023-02-16T18:56:27.518Z,0.05
2023-02-16T18:58:55.025Z,0.13
2023-02-16T19:01:33.237Z,0.00
2023-02-16T19:04:01.308Z,0.00
2023-02-16T19:06:28.810Z,0.00
2023-02-16T19:08:58.398Z,0.03
2023-02-16T19:11:25.651Z,0.00
2023-02-16T19:13:52.845Z,0.57
2023-02-16T19:16:20.073Z,0.03
2023-02-16T19:18:47.256Z,0.00
2023-02-16T19:21:14.986Z,0.17
2023-02-16T19:23:42.244Z,0.15
2023-02-16T19:26:11.175Z,0.00
2023-02-16T19:28:39.060Z,0.00
2023-02-16T19:31:08.272Z,0.00
2023-02-16T19:33:36.100Z,0.00
2023-02-16T19:36:07.801Z,0.00
2023-02-16T19:38:39.450Z,0.00
2023-02-16T19:41:11.125Z,0.60
2023-02-16T19:43:38.762Z,0.00
2023-02-16T19:46:06.622Z,0.00
2023-02-16T19:48:34.475Z,0.00
2023-02-16T19:51:02.458Z,0.80
2023-02-16T19:53:29.781Z,0.00
2023-02-16T19:55:57.176Z,0.00
2023-02-16T19:58:24.983Z,0.10
2023-02-16T20:00:52.505Z,0.00
2023-02-16T20:03:19.757Z,0.00
2023-02-16T20:05:46.956Z,0.00
2023-02-16T20:08:14.193Z,0.10
2023-02-16T20:10:42.680Z,0.85
2023-02-16T20:13:10.383Z,0.00
2023-02-16T20:15:37.544Z,0.05
2023-02-16T20:18:05.969Z,0.10
2023-02-16T20:20:33.100Z,0.70
2023-02-16T20:23:00.257Z,0.10
2023-02-16T20:25:27.628Z,0.00
2023-02-16T20:27:56.556Z,0.15
2023-02-16T20:30:25.297Z,0.30
2023-02-16T20:32:52.641Z,0.00
2023-02-16T20:35:19.861Z,0.00
2023-02-16T20:37:47.037Z,0.00
2023-02-16T20:40:14.399Z,0.00
2023-02-16T20:42:41.573Z,0.00
2023-02-16T20:45:09.902Z,0.00
2023-02-16T20:47:37.291Z,0.00
2023-02-16T20:50:05.393Z,0.00
2023-02-16T20:52:32.667Z,0.00
2023-02-16T20:54:59.918Z,0.17
2023-02-16T20:57:27.520Z,0.10
2023-02-16T20:59:55.373Z,0.00
2023-02-16T21:02:22.632Z,0.00
2023-02-16T21:04:49.860Z,0.00
2023-02-16T21:07:17.050Z,0.38
2023-02-16T21:09:44.224Z,0.08
2023-02-16T21:12:11.417Z,0.28
2023-02-16T21:14:38.619Z,0.13
2023-02-16T21:17:05.806Z,0.22
2023-02-16T21:19:33.074Z,0.28
2023-02-16T21:22:00.276Z,0.38
2023-02-16T21:24:27.469Z,0.00
2023-02-16T21:26:54.692Z,0.00
2023-02-16T21:29:21.880Z,0.00
2023-02-16T21:31:49.582Z,0.30
2023-02-16T21:34:16.917Z,0.38
2023-02-16T21:36:44.427Z,0.05
2023-02-16T21:39:11.679Z,0.00
2023-02-16T21:41:38.876Z,0.00
2023-02-16T21:44:06.909Z,0.00
2023-02-16T21:46:34.048Z,0.00
2023-02-16T21:49:01.372Z,0.00
2023-02-16T21:51:30.779Z,0.00
2023-02-16T21:53:58.470Z,0.10
2023-02-16T21:56:31.646Z,0.00
2023-02-16T21:58:59.269Z,0.20
2023-02-16T22:01:28.002Z,0.00
2023-02-16T22:03:59.316Z,0.50
2023-02-16T22:06:38.225Z,0.00
2023-02-16T22:09:07.065Z,0.00
2023-02-16T22:11:34.294Z,0.00
2023-02-16T22:14:01.756Z,0.00
2023-02-16T22:16:30.252Z,0.00
2023-02-16T22:18:58.419Z,0.00
2023-02-16T22:21:25.802Z,0.00
2023-02-16T22:23:53.456Z,0.00
2023-02-16T22:26:24.914Z,0.00
2023-02-16T22:28:52.056Z,0.00
2023-02-16T22:31:23.911Z,0.00
2023-02-16T22:33:59.282Z,0.00
2023-02-16T22:36:26.845Z,0.30
2023-02-16T22:38:54.447Z,0.10
2023-02-16T22:41:22.427Z,0.20
2023-02-16T22:43:52.972Z,0.03
2023-02-16T22:46:20.322Z,0.00
2023-02-16T22:48:47.591Z,0.08
2023-02-16T22:51:15.686Z,0.10
2023-02-16T22:53:43.033Z,0.10
2023-02-16T22:56:10.942Z,0.00
2023-02-16T22:58:38.393Z,0.00
2023-02-16T23:01:11.206Z,0.00
2023-02-16T23:03:38.573Z,0.00
2023-02-16T23:06:19.553Z,0.00
2023-02-16T23:08:47.046Z,0.25
2023-02-16T23:11:14.236Z,0.00
2023-02-16T23:13:41.462Z,0.00
2023-02-16T23:16:09.787Z,0.00
2023-02-16T23:18:37.004Z,0.60
2023-02-16T23:21:08.463Z,0.00
2023-02-16T23:23:36.154Z,0.00
2023-02-16T23:26:05.771Z,0.00
2023-02-16T23:28:33.626Z,0.03
2023-02-16T23:31:00.872Z,0.00
2023-02-16T23:33:28.086Z,0.15
2023-02-16T23:35:55.835Z,0.00
2023-02-16T23:38:23.131Z,0.00
2023-02-16T23:41:00.453Z,0.00
2023-02-16T23:43:27.886Z,0.00
2023-02-16T23:45:55.316Z,0.00
2023-02-16T23:48:23.652Z,0.00
2023-02-16T23:50:51.594Z,0.00
2023-02-16T23:53:19.297Z,0.00
2023-02-16T23:55:56.781Z,0.00
2023-02-16T23:58:25.727Z,0.47
